Time;durP1;ratioP1;P1;durP2;ratioP2;P2;SDS_P1;SDS_P2;PMS_P1;PMS_P2;Temp;Humidity;BMP_temperature;BMP_pressure;BME280_temperature;BME280_humidity;BME280_pressure;Samples;Min_cycle;Max_cycle;Signal;HPM_P1;HPM_P2
2021/07/03 00:00:46;;;;;;;80.82;40.70;;;12.60;99.90;;;;;;4163633;28;20428;-86
2021/07/03 00:02:58;;;;;;;79.82;43.03;;;12.60;99.90;;;;;;4163610;28;20046;-86
2021/07/03 00:05:00;;;;;;;75.35;41.42;;;12.50;99.90;;;;;;4164186;28;20026;-86
2021/07/03 00:07:01;;;;;;;80.80;43.33;;;12.30;99.90;;;;;;4163248;28;20528;-84
2021/07/03 00:09:02;;;;;;;82.25;40.83;;;12.40;99.90;;;;;;4164121;28;20315;-85
2021/07/03 00:11:06;;;;;;;71.80;39.10;;;12.40;99.90;;;;;;4164999;28;20037;-86
2021/07/03 00:13:08;;;;;;;74.13;39.58;;;12.40;99.90;;;;;;4163886;28;20041;-86
2021/07/03 00:15:13;;;;;;;78.30;41.17;;;12.40;99.90;;;;;;4165024;28;20021;-87
2021/07/03 00:17:14;;;;;;;84.35;46.53;;;12.40;99.90;;;;;;4164104;28;20183;-87
2021/07/03 00:19:14;;;;;;;90.18;46.40;;;12.40;99.90;;;;;;4164000;28;20095;-87
2021/07/03 00:21:15;;;;;;;92.15;48.58;;;12.40;99.90;;;;;;4179229;28;20046;-87
2021/07/03 00:23:15;;;;;;;86.20;42.60;;;12.30;99.90;;;;;;4162989;28;20040;-85
2021/07/03 00:25:20;;;;;;;89.57;43.60;;;12.30;99.90;;;;;;4163931;28;20017;-85
2021/07/03 00:27:27;;;;;;;86.35;45.30;;;12.30;99.90;;;;;;4162184;28;20061;-87
2021/07/03 00:29:28;;;;;;;76.60;42.97;;;12.40;99.90;;;;;;4161933;28;20025;-86
2021/07/03 00:31:38;;;;;;;87.63;45.97;;;12.20;99.90;;;;;;4163108;28;20045;-86
2021/07/03 00:33:40;;;;;;;78.60;40.15;;;12.20;99.90;;;;;;4164268;28;20455;-86
2021/07/03 00:35:41;;;;;;;71.95;38.38;;;12.20;99.90;;;;;;4162750;28;20492;-85
2021/07/03 00:37:41;;;;;;;78.50;42.58;;;12.20;99.90;;;;;;4162959;28;20116;-85
2021/07/03 00:39:43;;;;;;;73.88;40.33;;;12.10;99.90;;;;;;4163312;28;20132;-86
2021/07/03 00:41:43;;;;;;;70.60;39.72;;;12.10;99.90;;;;;;4165006;28;20437;-86
2021/07/03 00:43:44;;;;;;;71.15;35.60;;;12.00;99.90;;;;;;4164489;28;20037;-87
2021/07/03 00:45:47;;;;;;;79.03;41.08;;;12.00;99.90;;;;;;4163156;28;20899;-87
2021/07/03 00:47:47;;;;;;;77.90;40.55;;;12.10;99.90;;;;;;4164122;28;20134;-86
2021/07/03 00:49:48;;;;;;;88.25;43.53;;;12.10;99.90;;;;;;4162515;28;20029;-86
2021/07/03 00:51:55;;;;;;;86.25;44.42;;;12.10;99.90;;;;;;4166365;28;20074;-86
2021/07/03 00:53:56;;;;;;;79.95;41.05;;;12.00;99.90;;;;;;4163512;28;20033;-86
2021/07/03 00:55:58;;;;;;;82.50;42.83;;;12.00;99.90;;;;;;4162946;28;20108;-86
2021/07/03 00:57:59;;;;;;;97.93;47.37;;;12.00;99.90;;;;;;4163366;28;20036;-86
2021/07/03 01:00:04;;;;;;;73.43;42.15;;;12.00;99.90;;;;;;4163970;28;20116;-86
2021/07/03 01:02:07;;;;;;;87.35;44.40;;;12.00;99.90;;;;;;4169561;28;20040;-86
2021/07/03 01:04:09;;;;;;;82.10;42.70;;;12.00;99.90;;;;;;4162469;28;20117;-86
2021/07/03 01:06:10;;;;;;;72.28;39.55;;;12.00;99.90;;;;;;4162486;28;20033;-84
2021/07/03 01:08:13;;;;;;;77.22;41.55;;;12.00;99.90;;;;;;4163751;28;20377;-85
2021/07/03 01:10:26;;;;;;;73.97;40.28;;;12.00;99.90;;;;;;4163620;28;20028;-85
2021/07/03 01:12:33;;;;;;;76.63;38.95;;;12.00;99.90;;;;;;4162409;28;20032;-85
2021/07/03 01:14:40;;;;;;;71.72;38.42;;;11.90;99.90;;;;;;4164252;28;20112;-87
2021/07/03 01:16:43;;;;;;;68.40;36.63;;;11.80;99.90;;;;;;4163373;28;20099;-85
2021/07/03 01:18:45;;;;;;;59.20;33.78;;;11.80;99.90;;;;;;4163331;28;20040;-86
2021/07/03 01:20:47;;;;;;;69.47;38.17;;;11.80;99.90;;;;;;4163075;28;20451;-83
2021/07/03 01:22:49;;;;;;;76.90;38.05;;;11.70;99.90;;;;;;4174294;28;20057;-85
2021/07/03 01:24:49;;;;;;;86.63;41.88;;;11.70;99.90;;;;;;4164582;28;20045;-85
2021/07/03 01:26:57;;;;;;;78.70;41.08;;;11.80;99.90;;;;;;4162952;28;20120;-86
2021/07/03 01:29:04;;;;;;;90.13;41.35;;;11.80;99.90;;;;;;4162761;28;20042;-86
2021/07/03 01:31:05;;;;;;;77.50;42.15;;;11.80;99.90;;;;;;4162346;28;20033;-86
2021/07/03 01:33:12;;;;;;;75.63;39.08;;;11.80;99.90;;;;;;4179452;28;20534;-84
2021/07/03 01:35:13;;;;;;;82.68;41.75;;;11.80;99.90;;;;;;4163849;28;20378;-86
2021/07/03 01:37:25;;;;;;;75.95;39.05;;;11.80;99.90;;;;;;4162717;28;20075;-86
2021/07/03 01:39:28;;;;;;;66.13;32.85;;;11.80;99.90;;;;;;4164097;28;20064;-86
2021/07/03 01:41:32;;;;;;;70.25;36.75;;;11.80;99.90;;;;;;4164205;28;20034;-86
2021/07/03 01:43:40;;;;;;;70.97;40.05;;;11.70;99.90;;;;;;4164281;28;20034;-85
2021/07/03 01:45:41;;;;;;;80.38;40.15;;;11.70;99.90;;;;;;4161976;28;20038;-85
2021/07/03 01:47:51;;;;;;;78.05;39.10;;;11.70;99.90;;;;;;4163893;28;20392;-86
2021/07/03 01:49:53;;;;;;;71.93;38.38;;;11.70;99.90;;;;;;4164184;28;20036;-86
2021/07/03 01:51:54;;;;;;;83.20;40.60;;;11.70;99.90;;;;;;4163512;28;20033;-85
2021/07/03 01:54:05;;;;;;;80.13;39.58;;;11.60;99.90;;;;;;4162190;28;20030;-85
2021/07/03 01:56:10;;;;;;;68.47;36.45;;;11.70;99.90;;;;;;4162364;28;20088;-83
2021/07/03 01:58:22;;;;;;;77.57;40.35;;;11.70;99.90;;;;;;4163742;28;20026;-85
2021/07/03 02:00:23;;;;;;;91.57;43.90;;;11.70;99.90;;;;;;4155716;28;20030;-85
2021/07/03 02:02:23;;;;;;;87.78;39.38;;;11.70;99.90;;;;;;4163286;28;20021;-84
2021/07/03 02:04:29;;;;;;;86.68;39.45;;;11.80;99.90;;;;;;4163746;28;20028;-85
2021/07/03 02:06:30;;;;;;;79.63;39.85;;;11.80;99.90;;;;;;4164076;28;20041;-86
2021/07/03 02:08:31;;;;;;;74.35;37.08;;;11.80;99.90;;;;;;4156287;28;20411;-85
2021/07/03 02:10:32;;;;;;;78.28;38.30;;;11.70;99.90;;;;;;4164222;28;20026;-86
2021/07/03 02:12:32;;;;;;;89.68;42.90;;;11.70;99.90;;;;;;4166106;28;20025;-85
2021/07/03 02:14:33;;;;;;;71.03;34.47;;;11.60;99.90;;;;;;4165621;28;20120;-85
2021/07/03 02:16:41;;;;;;;83.22;38.92;;;11.60;99.90;;;;;;4151647;28;20485;-85
2021/07/03 02:18:41;;;;;;;82.18;39.88;;;11.60;99.90;;;;;;4171222;28;20099;-85
2021/07/03 02:20:42;;;;;;;82.35;40.08;;;11.60;99.90;;;;;;4165829;28;20025;-84
2021/07/03 02:22:43;;;;;;;95.47;41.83;;;11.60;99.90;;;;;;4165449;28;20164;-85
2021/07/03 02:24:50;;;;;;;85.70;40.58;;;11.60;99.90;;;;;;4165974;28;20072;-85
2021/07/03 02:26:53;;;;;;;81.97;39.15;;;11.60;99.90;;;;;;4165697;28;20025;-85
2021/07/03 02:28:53;;;;;;;84.90;41.90;;;11.60;99.90;;;;;;4162879;28;20026;-85
2021/07/03 02:30:56;;;;;;;75.53;39.17;;;11.60;99.90;;;;;;4157146;28;20124;-85
2021/07/03 02:33:05;;;;;;;84.03;43.40;;;11.50;99.90;;;;;;4166834;28;20037;-85
2021/07/03 02:35:07;;;;;;;83.55;42.40;;;11.50;99.90;;;;;;4164237;28;21131;-83
2021/07/03 02:37:08;;;;;;;85.95;42.88;;;11.60;99.90;;;;;;4165517;28;20040;-86
2021/07/03 02:39:09;;;;;;;93.10;44.90;;;11.60;99.90;;;;;;4166571;28;20496;-86
2021/07/03 02:41:10;;;;;;;89.40;43.63;;;11.60;99.90;;;;;;4165357;28;20101;-85
2021/07/03 02:43:13;;;;;;;85.50;43.65;;;11.60;99.90;;;;;;4164837;28;20052;-86
2021/07/03 02:45:18;;;;;;;78.50;41.10;;;11.60;99.90;;;;;;4165213;28;20030;-85
2021/07/03 02:47:25;;;;;;;80.95;41.58;;;11.60;99.90;;;;;;4166867;28;20028;-85
2021/07/03 02:49:26;;;;;;;96.13;44.45;;;11.60;99.90;;;;;;4166946;28;21193;-85
2021/07/03 02:51:28;;;;;;;81.82;40.35;;;11.70;99.90;;;;;;4162994;28;20025;-83
2021/07/03 02:53:30;;;;;;;73.28;38.15;;;11.70;99.90;;;;;;4165804;28;20091;-85
2021/07/03 02:55:31;;;;;;;87.53;39.05;;;11.70;99.90;;;;;;4166518;28;20120;-85
2021/07/03 02:57:33;;;;;;;68.55;35.40;;;11.70;99.90;;;;;;4166680;28;20030;-85
2021/07/03 02:59:34;;;;;;;62.80;33.33;;;11.60;99.90;;;;;;4166161;28;20387;-85
2021/07/03 03:01:38;;;;;;;79.18;41.53;;;11.60;99.90;;;;;;4165823;28;20483;-85
2021/07/03 03:03:42;;;;;;;76.50;36.65;;;11.60;99.90;;;;;;4165097;28;20052;-85
2021/07/03 03:05:49;;;;;;;75.28;35.67;;;11.50;99.90;;;;;;4165051;28;20073;-84
2021/07/03 03:07:50;;;;;;;74.15;36.05;;;11.60;99.90;;;;;;4166748;28;20029;-86
2021/07/03 03:09:56;;;;;;;70.72;37.33;;;11.60;99.90;;;;;;4164914;28;20064;-86
2021/07/03 03:12:05;;;;;;;72.70;35.10;;;11.50;99.90;;;;;;4167406;28;20211;-85
2021/07/03 03:14:06;;;;;;;82.63;40.95;;;11.60;99.90;;;;;;4165737;28;20404;-84
2021/07/03 03:16:08;;;;;;;70.55;36.03;;;11.60;99.90;;;;;;4165111;28;20068;-84
2021/07/03 03:18:08;;;;;;;77.95;40.60;;;11.70;99.90;;;;;;4164694;28;20033;-83
2021/07/03 03:20:12;;;;;;;86.18;41.50;;;11.70;99.90;;;;;;4164463;28;20035;-82
2021/07/03 03:22:15;;;;;;;79.55;41.38;;;11.80;99.90;;;;;;4164768;28;20052;-86
2021/07/03 03:24:17;;;;;;;73.47;37.55;;;11.80;99.90;;;;;;4165605;28;20048;-86
2021/07/03 03:26:19;;;;;;;78.20;41.25;;;11.80;99.90;;;;;;4163968;28;20053;-85
2021/07/03 03:28:25;;;;;;;68.10;36.53;;;11.90;99.90;;;;;;4166347;28;20040;-86
2021/07/03 03:30:26;;;;;;;73.05;38.25;;;11.90;99.90;;;;;;4164213;28;20033;-84
2021/07/03 03:32:27;;;;;;;78.80;38.67;;;12.00;99.90;;;;;;4165283;28;20022;-85
2021/07/03 03:34:33;;;;;;;80.95;40.55;;;12.00;99.90;;;;;;4165710;28;20052;-85
2021/07/03 03:36:34;;;;;;;81.88;40.70;;;12.00;99.90;;;;;;4165730;28;20037;-85
2021/07/03 03:38:38;;;;;;;70.35;37.72;;;12.00;99.90;;;;;;4163878;28;20119;-86
2021/07/03 03:40:45;;;;;;;75.50;37.78;;;12.00;99.90;;;;;;4163806;28;20124;-85
2021/07/03 03:42:55;;;;;;;79.15;41.58;;;12.00;99.90;;;;;;4161084;28;20088;-84
2021/07/03 03:44:57;;;;;;;67.53;33.17;;;12.00;99.90;;;;;;4174473;28;20120;-85
2021/07/03 03:46:57;;;;;;;67.57;36.80;;;12.00;99.90;;;;;;4159173;28;20036;-85
2021/07/03 03:49:00;;;;;;;81.70;40.28;;;12.10;99.90;;;;;;4162082;28;20544;-85
2021/07/03 03:51:10;;;;;;;82.38;41.45;;;12.10;99.90;;;;;;4163888;28;20030;-85
2021/07/03 03:53:11;;;;;;;86.13;41.75;;;12.10;99.90;;;;;;4162238;28;20030;-86
2021/07/03 03:55:13;;;;;;;71.85;34.30;;;12.20;99.90;;;;;;4174872;28;20527;-86
2021/07/03 03:57:30;;;;;;;70.03;36.00;;;12.30;99.90;;;;;;4164139;28;20037;-86
2021/07/03 03:59:31;;;;;;;90.95;38.65;;;12.30;99.90;;;;;;4163893;28;20535;-86
2021/07/03 04:01:39;;;;;;;82.95;40.33;;;12.40;99.90;;;;;;4167391;28;20044;-85
2021/07/03 04:03:40;;;;;;;71.45;37.30;;;12.50;99.90;;;;;;4163793;28;20091;-86
2021/07/03 04:05:40;;;;;;;92.50;41.83;;;12.50;99.90;;;;;;4164131;28;20033;-84
2021/07/03 04:07:43;;;;;;;90.80;43.63;;;12.60;99.90;;;;;;4163894;28;20517;-86
2021/07/03 04:09:49;;;;;;;76.82;38.65;;;12.70;99.90;;;;;;4163788;28;20068;-86
2021/07/03 04:11:56;;;;;;;84.00;39.90;;;12.70;99.90;;;;;;4180097;28;20033;-86
2021/07/03 04:13:57;;;;;;;84.22;41.22;;;12.80;99.90;;;;;;4180021;28;20033;-86
2021/07/03 04:15:57;;;;;;;89.80;46.53;;;12.90;99.90;;;;;;4163245;28;20068;-86
2021/07/03 04:18:18;;;;;;;91.90;44.40;;;13.00;99.90;;;;;;4163501;28;20037;-86
2021/07/03 04:20:18;;;;;;;78.72;37.65;;;13.10;99.90;;;;;;4156919;28;20033;-86
2021/07/03 04:22:21;;;;;;;91.50;43.90;;;13.10;99.90;;;;;;4164910;28;20530;-86
2021/07/03 04:24:22;;;;;;;86.18;45.15;;;13.20;99.90;;;;;;4163558;28;20076;-86
2021/07/03 04:26:23;;;;;;;82.55;42.40;;;13.20;99.90;;;;;;4163041;28;20030;-87
2021/07/03 04:28:23;;;;;;;81.30;40.67;;;13.30;99.90;;;;;;4163143;28;20515;-86
2021/07/03 04:30:24;;;;;;;80.22;43.28;;;13.30;99.90;;;;;;4168466;28;20130;-85
2021/07/03 04:32:24;;;;;;;83.25;41.90;;;13.30;99.90;;;;;;4164753;28;20388;-86
2021/07/03 04:34:26;;;;;;;83.68;41.60;;;13.40;99.90;;;;;;4164757;28;20519;-86
2021/07/03 04:36:34;;;;;;;90.97;45.25;;;13.40;99.90;;;;;;4162257;28;20037;-86
2021/07/03 04:38:35;;;;;;;82.82;42.88;;;13.40;99.90;;;;;;4164158;28;20033;-84
2021/07/03 04:40:35;;;;;;;93.88;44.58;;;13.40;99.90;;;;;;4163572;28;20057;-85
2021/07/03 04:42:38;;;;;;;75.97;41.28;;;13.40;99.90;;;;;;4163027;28;20037;-86
2021/07/03 04:44:41;;;;;;;91.15;42.70;;;13.40;99.90;;;;;;4166987;28;20040;-85
2021/07/03 04:46:42;;;;;;;80.57;41.35;;;13.50;99.90;;;;;;4160872;28;20022;-86
2021/07/03 04:48:51;;;;;;;92.60;44.13;;;13.50;99.90;;;;;;4162871;28;20040;-85
2021/07/03 04:50:51;;;;;;;88.20;40.88;;;13.60;99.90;;;;;;4163067;28;20037;-86
2021/07/03 04:52:52;;;;;;;75.82;38.50;;;13.60;99.90;;;;;;4162458;28;20393;-85
2021/07/03 04:54:53;;;;;;;84.85;43.10;;;13.70;99.90;;;;;;4164654;28;20344;-85
2021/07/03 04:57:07;;;;;;;90.05;44.40;;;13.70;99.90;;;;;;4162258;28;20421;-85
2021/07/03 04:59:07;;;;;;;;;;;13.70;99.90;;;;;;4161624;28;20044;-86
2021/07/03 05:01:15;;;;;;;87.00;41.90;;;13.70;99.90;;;;;;4163884;28;19917;-86
2021/07/03 05:03:16;;;;;;;88.20;41.05;;;13.70;99.90;;;;;;4162449;28;20021;-85
2021/07/03 05:05:21;;;;;;;86.63;43.60;;;13.70;99.90;;;;;;4164021;28;20033;-85
2021/07/03 05:07:21;;;;;;;90.95;42.90;;;13.70;99.90;;;;;;4161031;28;20564;-85
2021/07/03 05:09:22;;;;;;;95.00;44.28;;;13.70;99.90;;;;;;4163543;28;20025;-85
2021/07/03 05:11:23;;;;;;;111.18;49.80;;;13.70;99.90;;;;;;4161893;28;20091;-85
2021/07/03 05:13:23;;;;;;;122.72;53.60;;;13.70;99.90;;;;;;4164257;28;20112;-85
2021/07/03 05:15:27;;;;;;;116.35;53.47;;;13.80;99.90;;;;;;4161899;28;20025;-86
2021/07/03 05:17:39;;;;;;;113.18;54.97;;;13.90;99.90;;;;;;4161918;28;20523;-85
2021/07/03 05:19:59;;;;;;;125.65;57.63;;;14.10;99.90;;;;;;4162343;28;20133;-86
2021/07/03 05:22:01;;;;;;;132.02;59.88;;;14.20;99.90;;;;;;4152573;28;20401;-86
2021/07/03 05:24:02;;;;;;;142.20;61.92;;;14.20;99.90;;;;;;4163701;28;20112;-83
2021/07/03 05:26:04;;;;;;;136.27;62.65;;;14.40;99.90;;;;;;4161987;28;20559;-85
2021/07/03 05:28:08;;;;;;;145.00;62.55;;;14.40;99.90;;;;;;4163627;28;20029;-85
2021/07/03 05:30:10;;;;;;;142.05;65.57;;;14.50;99.90;;;;;;4161529;28;20026;-85
2021/07/03 05:32:11;;;;;;;135.23;60.25;;;14.60;99.90;;;;;;4158540;28;20350;-84
2021/07/03 05:34:12;;;;;;;123.95;58.65;;;14.70;99.90;;;;;;4162016;28;20143;-85
2021/07/03 05:36:13;;;;;;;131.98;61.75;;;14.70;99.90;;;;;;4161967;28;20376;-85
2021/07/03 05:38:15;;;;;;;130.40;60.78;;;14.80;99.90;;;;;;4163282;28;20028;-85
2021/07/03 05:40:18;;;;;;;126.38;60.50;;;14.80;99.90;;;;;;4160546;28;20025;-85
2021/07/03 05:42:18;;;;;;;135.03;62.93;;;14.80;99.90;;;;;;4161690;28;20049;-84
2021/07/03 05:44:20;;;;;;;127.32;62.03;;;14.90;99.90;;;;;;4161563;28;20269;-85
2021/07/03 05:46:22;;;;;;;140.27;65.05;;;15.00;99.90;;;;;;4162202;28;20524;-85
2021/07/03 05:48:23;;;;;;;132.63;63.47;;;15.10;99.90;;;;;;4161617;28;20045;-84
2021/07/03 05:50:26;;;;;;;128.68;61.17;;;15.20;99.90;;;;;;4161533;28;20037;-85
2021/07/03 05:52:29;;;;;;;131.80;62.05;;;15.30;99.90;;;;;;4162055;28;20484;-84
2021/07/03 05:54:31;;;;;;;134.35;64.55;;;15.40;99.90;;;;;;4160200;28;20037;-85
2021/07/03 05:56:34;;;;;;;133.40;66.78;;;15.50;99.90;;;;;;4163355;28;20058;-84
2021/07/03 05:58:35;;;;;;;124.85;60.45;;;15.60;99.90;;;;;;4161568;28;20036;-84
2021/07/03 06:00:35;;;;;;;130.45;66.18;;;15.70;99.90;;;;;;4160846;28;20167;-85
2021/07/03 06:02:36;;;;;;;117.05;60.22;;;15.80;99.90;;;;;;4162762;28;20029;-84
2021/07/03 06:04:38;;;;;;;120.85;63.13;;;16.00;99.90;;;;;;4161812;28;20124;-84
2021/07/03 06:06:39;;;;;;;122.07;64.07;;;16.10;99.90;;;;;;4161983;28;20021;-84
2021/07/03 06:08:39;;;;;;;127.05;66.75;;;16.20;99.90;;;;;;4159788;28;20040;-84
2021/07/03 06:10:40;;;;;;;117.82;61.88;;;16.30;99.90;;;;;;4162533;28;20025;-84
2021/07/03 06:12:41;;;;;;;116.40;62.55;;;16.50;99.90;;;;;;4165641;28;20215;-84
2021/07/03 06:14:47;;;;;;;111.78;63.75;;;16.60;99.90;;;;;;4165680;28;20029;-86
2021/07/03 06:16:48;;;;;;;104.90;63.05;;;16.70;99.90;;;;;;4161198;28;20124;-85
2021/07/03 06:18:53;;;;;;;115.07;63.20;;;16.90;99.90;;;;;;4160152;28;20411;-85
2021/07/03 06:20:56;;;;;;;108.10;62.72;;;17.10;99.90;;;;;;4177666;28;20025;-85
2021/07/03 06:22:59;;;;;;;105.28;61.22;;;17.40;99.90;;;;;;4161868;28;20396;-86
2021/07/03 06:24:59;;;;;;;89.68;58.08;;;17.50;99.90;;;;;;4161718;28;20475;-85
2021/07/03 06:27:00;;;;;;;97.40;58.60;;;17.70;99.90;;;;;;4161454;28;20071;-84
2021/07/03 06:29:01;;;;;;;92.03;58.20;;;17.80;99.90;;;;;;4156871;28;20034;-84
2021/07/03 06:31:01;;;;;;;86.85;59.95;;;18.00;99.90;;;;;;4158723;28;20075;-83
2021/07/03 06:33:04;;;;;;;84.93;56.35;;;18.20;99.90;;;;;;4162787;28;20029;-85
2021/07/03 06:35:06;;;;;;;77.22;54.03;;;18.30;99.90;;;;;;4161654;28;20036;-85
2021/07/03 06:37:09;;;;;;;74.50;52.08;;;18.40;99.90;;;;;;4160951;28;20113;-84
2021/07/03 06:39:11;;;;;;;76.53;54.17;;;18.60;99.90;;;;;;4153115;28;20117;-86
2021/07/03 06:41:20;;;;;;;73.72;51.97;;;18.80;99.90;;;;;;4161052;28;20022;-84
2021/07/03 06:43:21;;;;;;;71.07;51.25;;;19.00;99.90;;;;;;4178453;28;20089;-86
2021/07/03 06:45:27;;;;;;;62.90;49.28;;;19.20;99.90;;;;;;4162637;28;20116;-87
2021/07/03 06:47:33;;;;;;;57.40;45.08;;;19.30;99.90;;;;;;4159572;28;20117;-86
2021/07/03 06:49:45;;;;;;;57.38;45.72;;;19.30;99.90;;;;;;4161706;28;20101;-87
2021/07/03 06:51:50;;;;;;;60.47;46.28;;;19.40;99.90;;;;;;4160682;28;20064;-83
2021/07/03 06:53:50;;;;;;;60.65;45.78;;;19.50;99.90;;;;;;4160384;28;20828;-86
2021/07/03 06:55:52;;;;;;;56.65;45.40;;;19.70;99.90;;;;;;4161269;28;20045;-86
2021/07/03 06:57:53;;;;;;;55.10;44.63;;;19.70;99.90;;;;;;4165273;28;20109;-88
2021/07/03 06:59:58;;;;;;;58.25;45.22;;;19.80;99.90;;;;;;4162458;28;20037;-86
2021/07/03 07:02:12;;;;;;;58.28;41.50;;;19.90;99.90;;;;;;4166352;28;20046;-87
2021/07/03 07:04:13;;;;;;;57.55;41.92;;;19.90;99.90;;;;;;4166802;28;20026;-87
2021/07/03 07:06:13;;;;;;;51.15;40.20;;;19.90;99.90;;;;;;4163612;28;20092;-89
2021/07/03 07:08:14;;;;;;;47.05;39.47;;;19.90;99.90;;;;;;4164868;28;20457;-88
2021/07/03 07:10:15;;;;;;;50.83;40.45;;;19.80;99.90;;;;;;4165699;28;20030;-90
2021/07/03 07:12:16;;;;;;;49.00;37.75;;;19.90;99.90;;;;;;4164676;28;20034;-90
2021/07/03 07:14:18;;;;;;;39.65;34.33;;;19.90;99.90;;;;;;4163640;28;20053;-88
2021/07/03 07:16:19;;;;;;;45.28;36.42;;;19.90;99.90;;;;;;4162892;28;20040;-86
2021/07/03 07:18:20;;;;;;;44.65;36.22;;;19.90;99.90;;;;;;4162856;28;20053;-87
2021/07/03 07:20:21;;;;;;;45.30;36.03;;;19.90;99.90;;;;;;4160925;28;20041;-87
2021/07/03 07:22:22;;;;;;;41.15;34.42;;;20.00;99.90;;;;;;4163573;28;20037;-84
2021/07/03 07:24:35;;;;;;;39.55;33.95;;;20.10;99.90;;;;;;4159910;28;20417;-85
2021/07/03 07:26:38;;;;;;;44.20;34.25;;;20.20;99.90;;;;;;4177825;28;20032;-85
2021/07/03 07:28:39;;;;;;;;;;;20.40;99.90;;;;;;4165097;28;20393;-85
2021/07/03 07:30:56;;;;;;;37.13;32.30;;;20.50;99.90;;;;;;4164555;28;19913;-87
2021/07/03 07:33:00;;;;;;;45.78;34.58;;;20.70;99.90;;;;;;4158598;28;20124;-88
2021/07/03 07:35:03;;;;;;;40.67;32.50;;;20.80;99.90;;;;;;4163896;28;20022;-87
2021/07/03 07:37:05;;;;;;;39.50;33.60;;;20.90;99.90;;;;;;4163358;28;20025;-88
2021/07/03 07:39:05;;;;;;;44.20;32.58;;;20.90;99.90;;;;;;4163299;28;20046;-87
2021/07/03 07:41:07;;;;;;;37.60;32.63;;;21.00;99.90;;;;;;4166166;28;20796;-84
2021/07/03 07:43:08;;;;;;;40.65;33.25;;;21.20;99.90;;;;;;4165154;28;20103;-82
2021/07/03 07:45:10;;;;;;;34.60;30.08;;;21.20;99.90;;;;;;4154775;28;20025;-86
2021/07/03 07:47:17;;;;;;;41.90;32.67;;;21.30;99.90;;;;;;4164426;28;20530;-90
2021/07/03 07:49:20;;;;;;;36.10;31.45;;;21.40;99.90;;;;;;4176515;28;20069;-86
2021/07/03 07:51:20;;;;;;;37.55;32.05;;;21.40;99.90;;;;;;4161948;28;20034;-86
2021/07/03 07:53:21;;;;;;;38.42;32.35;;;21.50;99.90;;;;;;4155898;28;20068;-86
2021/07/03 07:55:21;;;;;;;38.20;31.70;;;21.60;99.90;;;;;;4164063;28;20045;-88
2021/07/03 07:57:22;;;;;;;37.58;31.13;;;21.60;99.90;;;;;;4162235;28;20084;-86
2021/07/03 07:59:31;;;;;;;37.70;32.03;;;21.80;99.90;;;;;;4163235;28;20416;-86
2021/07/03 08:01:32;;;;;;;38.75;31.27;;;21.80;99.90;;;;;;4179950;28;20041;-85
2021/07/03 08:03:42;;;;;;;37.35;31.13;;;21.70;99.90;;;;;;4163367;28;20046;-85
2021/07/03 08:05:45;;;;;;;44.30;33.70;;;21.90;99.90;;;;;;4165078;28;20071;-85
2021/07/03 08:07:45;;;;;;;38.92;32.78;;;22.00;99.90;;;;;;4152702;28;20033;-84
2021/07/03 08:09:46;;;;;;;37.70;33.15;;;22.20;99.90;;;;;;4162969;28;20060;-89
2021/07/03 08:11:54;;;;;;;35.15;30.48;;;22.20;99.90;;;;;;4163764;28;20033;-87
2021/07/03 08:13:56;;;;;;;34.95;30.88;;;22.30;99.90;;;;;;4164252;28;20477;-86
2021/07/03 08:15:57;;;;;;;35.15;31.27;;;22.50;99.90;;;;;;4158516;28;20401;-83
2021/07/03 08:17:59;;;;;;;31.92;28.52;;;22.70;99.90;;;;;;4161020;28;20034;-87
2021/07/03 08:20:01;;;;;;;34.90;31.20;;;22.70;99.90;;;;;;4163161;28;20542;-83
2021/07/03 08:22:02;;;;;;;33.50;29.75;;;22.70;99.90;;;;;;4162155;28;20049;-87
2021/07/03 08:24:03;;;;;;;34.10;28.98;;;22.80;99.90;;;;;;4154552;28;20033;-86
2021/07/03 08:26:06;;;;;;;35.03;29.13;;;22.80;99.90;;;;;;4164882;28;20033;-84
2021/07/03 08:28:07;;;;;;;34.65;29.05;;;22.90;99.90;;;;;;4164020;28;20029;-85
2021/07/03 08:30:11;;;;;;;44.42;38.75;;;23.10;99.90;;;;;;4173681;28;20099;-91
2021/07/03 08:32:12;;;;;;;35.65;31.58;;;22.90;99.90;;;;;;4162917;28;20388;-83
2021/07/03 08:34:13;;;;;;;33.42;29.63;;;23.00;99.90;;;;;;4162277;28;20033;-84
2021/07/03 08:36:14;;;;;;;30.73;27.42;;;23.00;99.90;;;;;;4162224;28;20171;-79
2021/07/03 08:38:16;;;;;;;30.58;27.48;;;23.10;99.90;;;;;;4162872;28;20022;-83
2021/07/03 08:40:18;;;;;;;36.90;27.35;;;23.20;99.90;;;;;;4162438;28;20034;-85
2021/07/03 08:42:19;;;;;;;30.77;27.42;;;23.40;99.90;;;;;;4160608;28;20048;-83
2021/07/03 08:44:19;;;;;;;28.45;25.42;;;23.50;99.90;;;;;;4173320;28;20029;-84
2021/07/03 08:46:21;;;;;;;30.60;25.88;;;23.70;99.90;;;;;;4162928;28;20411;-84
2021/07/03 08:48:21;;;;;;;27.00;24.13;;;23.90;99.90;;;;;;4162964;28;20030;-83
2021/07/03 08:50:29;;;;;;;27.95;24.40;;;24.10;99.90;;;;;;4159418;28;20057;-84
2021/07/03 08:52:30;;;;;;;27.35;22.42;;;24.20;99.90;;;;;;4162074;28;20029;-83
2021/07/03 08:54:32;;;;;;;25.55;22.17;;;24.10;99.90;;;;;;4163275;28;20061;-81
2021/07/03 08:56:33;;;;;;;26.17;22.73;;;24.10;99.90;;;;;;4163642;28;20103;-83
2021/07/03 08:58:40;;;;;;;29.38;25.83;;;24.30;99.90;;;;;;4163058;28;20040;-84
2021/07/03 09:00:44;;;;;;;26.63;21.77;;;24.30;99.90;;;;;;4162375;28;20504;-82
2021/07/03 09:02:46;;;;;;;26.13;20.77;;;24.50;99.90;;;;;;4162305;28;20112;-85
2021/07/03 09:04:52;;;;;;;26.58;22.90;;;24.50;99.90;;;;;;4161424;28;20457;-82
2021/07/03 09:06:53;;;;;;;22.15;19.73;;;24.40;99.90;;;;;;4157115;28;20057;-80
2021/07/03 09:08:56;;;;;;;24.05;21.35;;;24.50;99.90;;;;;;4159348;28;20132;-83
2021/07/03 09:11:07;;;;;;;;;;;24.50;99.90;;;;;;4163565;28;20071;-81
2021/07/03 09:13:08;;;;;;;20.48;18.27;;;24.60;99.90;;;;;;4158579;28;19916;-83
2021/07/03 09:15:14;;;;;;;22.15;19.25;;;24.70;99.90;;;;;;4161576;28;20448;-83
2021/07/03 09:17:15;;;;;;;24.38;20.75;;;24.40;99.90;;;;;;4162449;28;20028;-81
2021/07/03 09:19:29;;;;;;;20.67;18.50;;;24.50;99.90;;;;;;4177756;28;20511;-83
2021/07/03 09:21:32;;;;;;;20.95;18.80;;;24.60;99.90;;;;;;4162408;28;20121;-79
2021/07/03 09:23:38;;;;;;;21.02;17.63;;;24.40;99.90;;;;;;4162508;28;20032;-83
2021/07/03 09:25:46;;;;;;;22.20;19.80;;;24.60;99.90;;;;;;4163716;28;20033;-82
2021/07/03 09:27:47;;;;;;;18.98;14.32;;;24.90;99.90;;;;;;4163534;28;20064;-80
2021/07/03 09:29:57;;;;;;;18.83;14.00;;;25.20;99.90;;;;;;4162571;28;20079;-84
2021/07/03 09:32:08;;;;;;;18.95;15.82;;;25.50;99.90;;;;;;4159475;28;20030;-87
2021/07/03 09:34:15;;;;;;;19.02;17.02;;;25.30;99.90;;;;;;4162567;28;20032;-85
2021/07/03 09:36:27;;;;;;;15.65;13.23;;;25.20;99.90;;;;;;4160531;28;20117;-81
2021/07/03 09:38:37;;;;;;;18.02;14.52;;;25.30;99.90;;;;;;4159046;28;20523;-81
2021/07/03 09:40:46;;;;;;;16.02;13.98;;;;;;;;;;4175912;28;20893;-84
2021/07/03 09:42:46;;;;;;;17.85;14.70;;;25.90;99.90;;;;;;4171674;28;20053;-83
2021/07/03 09:44:57;;;;;;;20.88;16.05;;;25.90;99.90;;;;;;4163658;28;20441;-86
2021/07/03 09:47:03;;;;;;;19.45;16.00;;;26.20;99.90;;;;;;4161025;28;20037;-86
2021/07/03 09:49:46;;;;;;;14.70;12.63;;;26.30;99.90;;;;;;4162096;28;20064;-84
2021/07/03 09:51:49;;;;;;;17.58;14.90;;;26.50;99.90;;;;;;4162694;28;20513;-86
2021/07/03 09:53:57;;;;;;;15.68;13.32;;;26.60;99.90;;;;;;4161789;28;20378;-85
2021/07/03 09:56:06;;;;;;;16.92;14.23;;;27.00;99.90;;;;;;4171847;28;20033;-86
2021/07/03 09:58:09;;;;;;;16.92;14.27;;;27.30;99.90;;;;;;4163236;28;20021;-86
2021/07/03 10:00:17;;;;;;;14.73;13.27;;;27.80;99.90;;;;;;4162117;28;20026;-84
2021/07/03 10:02:18;;;;;;;16.80;13.40;;;28.00;99.90;;;;;;4162282;28;20114;-83
2021/07/03 10:04:26;;;;;;;15.32;13.80;;;28.30;99.90;;;;;;4161996;28;20029;-83
2021/07/03 10:07:02;;;;;;;19.52;12.63;;;28.30;99.90;;;;;;4161939;28;20022;-83
2021/07/03 10:09:06;;;;;;;16.63;14.30;;;28.30;99.90;;;;;;4161830;28;20033;-81
2021/07/03 10:11:10;;;;;;;15.35;13.32;;;28.00;99.90;;;;;;4160820;28;20504;-81
2021/07/03 10:13:16;;;;;;;15.45;13.95;;;27.80;99.90;;;;;;4163178;28;20461;-83
2021/07/03 10:15:43;;;;;;;14.63;13.07;;;27.80;99.90;;;;;;4162869;28;20029;-84
2021/07/03 10:17:44;;;;;;;14.95;12.90;;;27.70;99.90;;;;;;4172823;28;20037;-82
2021/07/03 10:19:51;;;;;;;14.82;13.18;;;28.00;99.90;;;;;;4178039;28;20132;-82
2021/07/03 10:21:51;;;;;;;14.05;12.60;;;28.30;99.90;;;;;;4164180;28;20140;-83
2021/07/03 10:23:58;;;;;;;12.20;11.00;;;28.40;99.90;;;;;;4175543;28;20059;-83
2021/07/03 10:25:58;;;;;;;13.43;12.02;;;28.80;99.90;;;;;;4168613;28;20443;-82
2021/07/03 10:28:10;;;;;;;13.95;12.55;;;28.40;99.90;;;;;;4168698;28;20080;-83